createdAt,value
2022-12-28T00:02:19.496Z,67.40
2022-12-28T00:04:47.488Z,67.82
2022-12-28T00:07:15.549Z,67.48
2022-12-28T00:09:43.449Z,67.64
2022-12-28T00:12:11.723Z,67.32
2022-12-28T00:14:40.865Z,67.83
2022-12-28T00:17:09.516Z,67.07
2022-12-28T00:19:37.508Z,67.65
2022-12-28T00:22:05.446Z,67.70
2022-12-28T00:24:33.245Z,67.51
2022-12-28T00:27:02.447Z,67.59
2022-12-28T00:29:30.325Z,67.53
2022-12-28T00:31:59.533Z,67.70
2022-12-28T00:34:27.339Z,67.83
2022-12-28T00:37:10.413Z,67.85
2022-12-28T00:39:41.628Z,67.76
2022-12-28T00:42:10.138Z,67.57
2022-12-28T00:44:38.474Z,68.17
2022-12-28T00:47:07.707Z,67.79
2022-12-28T00:49:35.724Z,67.92
2022-12-28T00:52:03.649Z,68.29
2022-12-28T00:54:31.493Z,68.33
2022-12-28T00:56:59.270Z,68.02
2022-12-28T00:59:27.165Z,67.91
2022-12-28T01:01:55.212Z,68.57
2022-12-28T01:04:24.599Z,67.98
2022-12-28T01:06:52.557Z,68.23
2022-12-28T01:09:20.362Z,67.85
2022-12-28T01:11:48.277Z,68.58
2022-12-28T01:14:16.106Z,68.63
2022-12-28T01:16:44.115Z,68.55
2022-12-28T01:19:17.221Z,68.40
2022-12-28T01:21:49.556Z,68.83
2022-12-28T01:24:17.847Z,68.30
2022-12-28T01:26:45.750Z,68.43
2022-12-28T01:29:13.621Z,69.16
2022-12-28T01:31:41.458Z,69.33
2022-12-28T01:34:09.392Z,69.61
2022-12-28T01:36:37.226Z,69.43
2022-12-28T01:39:08.225Z,69.36
2022-12-28T01:41:39.405Z,69.44
2022-12-28T01:44:47.312Z,69.80
2022-12-28T01:47:17.870Z,70.39
2022-12-28T01:49:56.165Z,70.97
2022-12-28T01:52:29.613Z,70.91
2022-12-28T01:55:05.021Z,71.02
2022-12-28T01:57:37.418Z,72.04
2022-12-28T02:00:09.815Z,72.60
2022-12-28T02:02:44.070Z,72.30
2022-12-28T02:05:14.270Z,71.82
2022-12-28T02:07:48.264Z,71.67
2022-12-28T02:10:44.538Z,71.40
2022-12-28T02:13:08.030Z,72.13
2022-12-28T02:15:35.908Z,72.54
2022-12-28T02:18:03.926Z,72.04
2022-12-28T02:20:38.363Z,71.60
2022-12-28T02:23:39.516Z,71.54
2022-12-28T02:26:36.874Z,71.42
2022-12-28T02:29:32.406Z,70.54
2022-12-28T02:32:11.704Z,70.46
2022-12-28T02:34:47.406Z,71.11
2022-12-28T02:37:20.266Z,71.39
2022-12-28T02:39:53.008Z,71.03
2022-12-28T02:42:23.255Z,70.93
2022-12-28T02:45:09.735Z,70.29
2022-12-28T02:47:56.094Z,70.91
2022-12-28T02:50:31.965Z,70.43
2022-12-28T02:53:27.686Z,70.97
2022-12-28T02:56:08.193Z,70.97
2022-12-28T02:59:12.286Z,71.59
2022-12-28T03:02:16.529Z,71.20
2022-12-28T03:05:08.455Z,70.98
2022-12-28T03:08:00.711Z,71.35
2022-12-28T03:10:33.168Z,70.94
2022-12-28T03:13:04.032Z,71.44
2022-12-28T03:15:38.107Z,70.96
2022-12-28T03:18:31.334Z,70.79
2022-12-28T03:21:20.646Z,70.54
2022-12-28T03:24:08.969Z,71.20
2022-12-28T03:26:59.295Z,72.15
2022-12-28T03:29:49.084Z,73.34
2022-12-28T03:32:17.247Z,73.46
2022-12-28T03:34:47.291Z,73.42
2022-12-28T03:37:25.700Z,73.25
2022-12-28T03:40:01.496Z,73.63
2022-12-28T03:42:52.487Z,74.51
2022-12-28T03:45:46.388Z,75.14
2022-12-28T03:48:16.123Z,75.64
2022-12-28T03:50:48.723Z,75.99
2022-12-28T03:53:22.275Z,76.21
2022-12-28T03:55:53.683Z,76.58
2022-12-28T03:58:23.008Z,76.53
2022-12-28T04:00:51.319Z,76.48
2022-12-28T04:03:21.877Z,76.31
2022-12-28T04:05:51.123Z,76.79
2022-12-28T04:08:19.029Z,77.13
2022-12-28T04:10:46.833Z,76.83
2022-12-28T04:13:14.667Z,75.85
2022-12-28T04:16:12.335Z,75.59
2022-12-28T04:18:42.900Z,75.10
2022-12-28T04:21:14.155Z,74.44
2022-12-28T04:23:45.289Z,73.98
2022-12-28T04:26:22.337Z,73.75
2022-12-28T04:28:53.437Z,73.18
2022-12-28T04:31:53.550Z,73.47
2022-12-28T04:34:22.642Z,73.11
2022-12-28T04:37:05.253Z,73.53
2022-12-28T04:39:56.259Z,73.51
2022-12-28T04:42:21.257Z,73.36
2022-12-28T04:44:49.077Z,72.95
2022-12-28T04:47:17.018Z,72.86
2022-12-28T04:49:44.841Z,73.05
2022-12-28T04:52:14.704Z,72.96
2022-12-28T04:54:42.617Z,72.70
2022-12-28T04:57:10.401Z,73.04
2022-12-28T04:59:40.198Z,73.80
2022-12-28T05:02:08.184Z,74.17
2022-12-28T05:04:36.072Z,74.39
2022-12-28T05:07:03.874Z,74.65
2022-12-28T05:09:33.043Z,75.18
2022-12-28T05:12:00.948Z,75.48
2022-12-28T05:14:33.604Z,75.10
2022-12-28T05:17:04.661Z,75.18
2022-12-28T05:19:32.468Z,75.23
2022-12-28T05:22:01.784Z,75.30
2022-12-28T05:24:29.859Z,75.07
2022-12-28T05:26:59.102Z,75.50
2022-12-28T05:29:26.909Z,76.52
2022-12-28T05:31:54.763Z,76.78
2022-12-28T05:34:22.665Z,77.23
2022-12-28T05:36:50.504Z,77.24
2022-12-28T05:39:18.376Z,77.44
2022-12-28T05:41:46.246Z,77.36
2022-12-28T05:44:15.553Z,77.55
2022-12-28T05:46:43.497Z,78.21
2022-12-28T05:49:11.418Z,78.31
2022-12-28T05:51:40.144Z,77.38
2022-12-28T05:54:08.203Z,76.76
2022-12-28T05:56:36.040Z,76.72
2022-12-28T05:59:06.201Z,76.42
2022-12-28T06:01:37.593Z,76.21
2022-12-28T06:04:07.595Z,76.07
2022-12-28T06:06:36.407Z,75.73
2022-12-28T06:09:05.266Z,75.29
2022-12-28T06:11:33.489Z,74.69
2022-12-28T06:14:03.534Z,75.24
2022-12-28T06:16:33.016Z,74.16
2022-12-28T06:19:06.272Z,73.82
2022-12-28T06:21:35.741Z,73.75
2022-12-28T06:24:05.197Z,73.76
2022-12-28T06:26:34.932Z,74.10
2022-12-28T06:29:03.286Z,74.26
2022-12-28T06:31:32.824Z,74.12
2022-12-28T06:34:03.648Z,74.06
2022-12-28T06:36:33.718Z,74.10
2022-12-28T06:39:02.726Z,73.52
2022-12-28T06:41:31.067Z,73.94
2022-12-28T06:43:59.964Z,73.73
2022-12-28T06:46:29.560Z,72.53
2022-12-28T06:48:58.201Z,72.92
2022-12-28T06:51:29.384Z,73.48
2022-12-28T06:53:57.968Z,73.50
2022-12-28T06:56:28.565Z,73.82
2022-12-28T06:59:02.542Z,74.13
2022-12-28T07:01:33.320Z,74.62
2022-12-28T07:04:02.759Z,74.06
2022-12-28T07:06:36.830Z,73.77
2022-12-28T07:09:08.338Z,74.84
2022-12-28T07:11:36.629Z,73.97
2022-12-28T07:14:04.595Z,73.96
2022-12-28T07:19:01.142Z,73.61
2022-12-28T07:21:32.699Z,73.29
2022-12-28T07:24:02.083Z,73.65
2022-12-28T07:26:31.678Z,73.96
2022-12-28T07:29:01.513Z,73.85
2022-12-28T07:31:31.704Z,74.19
2022-12-28T07:34:01.151Z,74.01
2022-12-28T07:36:31.261Z,73.27
2022-12-28T07:38:59.660Z,73.54
2022-12-28T07:41:30.886Z,73.45
2022-12-28T07:43:59.675Z,72.42
2022-12-28T07:46:29.068Z,73.06
2022-12-28T07:48:57.944Z,72.14
2022-12-28T07:51:28.606Z,72.60
2022-12-28T07:53:58.449Z,73.17
2022-12-28T07:56:27.352Z,73.51
2022-12-28T07:58:58.559Z,74.52
2022-12-28T08:01:28.736Z,74.70
2022-12-28T08:03:58.723Z,73.89
2022-12-28T08:06:28.503Z,74.20
2022-12-28T08:09:00.258Z,74.74
2022-12-28T08:11:30.738Z,74.87
2022-12-28T08:14:01.081Z,74.04
2022-12-28T08:16:31.655Z,73.78
2022-12-28T08:18:59.676Z,73.86
2022-12-28T08:21:29.767Z,73.46
2022-12-28T08:23:58.029Z,74.71
2022-12-28T08:26:28.336Z,74.46
2022-12-28T08:28:58.275Z,74.44
2022-12-28T08:31:30.173Z,74.89
2022-12-28T08:33:59.847Z,74.76
2022-12-28T08:36:28.205Z,74.35
2022-12-28T08:38:57.447Z,73.75
2022-12-28T08:41:27.511Z,73.81
2022-12-28T08:43:55.919Z,73.86
2022-12-28T08:46:26.078Z,73.54
2022-12-28T08:48:56.703Z,72.79
2022-12-28T08:51:26.641Z,73.09
2022-12-28T08:53:54.714Z,73.04
2022-12-28T08:56:25.239Z,73.10
2022-12-28T08:58:53.379Z,72.92
2022-12-28T09:01:23.300Z,72.14
2022-12-28T09:03:52.707Z,72.01
2022-12-28T09:06:24.407Z,72.25
2022-12-28T09:09:08.569Z,72.72
2022-12-28T09:11:38.070Z,72.80
2022-12-28T09:14:07.244Z,73.24
2022-12-28T09:16:36.595Z,73.67
2022-12-28T09:19:06.800Z,73.66
2022-12-28T09:21:37.977Z,73.89
2022-12-28T09:24:06.725Z,73.87
2022-12-28T09:26:37.134Z,73.39
2022-12-28T09:29:07.076Z,73.46
2022-12-28T09:31:36.994Z,72.75
2022-12-28T09:36:54.478Z,72.32
2022-12-28T09:39:24.854Z,72.37
2022-12-28T09:41:56.485Z,72.69
2022-12-28T09:44:53.573Z,72.14
2022-12-28T09:47:29.034Z,72.48
2022-12-28T09:50:25.111Z,71.69
2022-12-28T09:53:06.636Z,71.15
2022-12-28T09:55:36.114Z,71.11
2022-12-28T09:58:06.659Z,71.49
2022-12-28T10:00:39.986Z,71.00
2022-12-28T10:03:15.314Z,70.92
2022-12-28T10:05:43.913Z,70.58
2022-12-28T10:08:15.798Z,70.07
2022-12-28T10:10:48.656Z,69.76
2022-12-28T10:16:16.965Z,69.41
2022-12-28T10:18:44.949Z,69.29
2022-12-28T10:21:13.649Z,69.08
2022-12-28T10:24:12.482Z,69.29
2022-12-28T10:26:33.591Z,69.24
2022-12-28T10:29:01.965Z,69.50
2022-12-28T10:31:34.402Z,69.05
2022-12-28T10:34:02.921Z,68.86
2022-12-28T10:36:34.937Z,69.02
2022-12-28T10:39:05.518Z,68.94
2022-12-28T10:41:38.568Z,68.52
2022-12-28T10:44:38.839Z,68.53
2022-12-28T10:47:25.458Z,68.82
2022-12-28T10:52:41.911Z,67.54
2022-12-28T10:55:31.004Z,67.41
2022-12-28T10:58:33.879Z,67.66
2022-12-28T11:01:06.751Z,67.13
2022-12-28T11:03:21.462Z,68.27
2022-12-28T11:03:37.241Z,67.50
2022-12-28T11:06:19.915Z,67.54
2022-12-28T11:09:07.081Z,67.18
2022-12-28T11:11:36.247Z,67.46
2022-12-28T11:14:10.613Z,67.34
2022-12-28T11:16:40.908Z,67.63
2022-12-28T11:19:09.245Z,67.24
2022-12-28T11:21:37.593Z,66.78
2022-12-28T11:24:06.251Z,67.06
2022-12-28T11:26:36.518Z,67.09
2022-12-28T11:29:04.393Z,66.65
2022-12-28T11:31:35.753Z,66.48
2022-12-28T11:34:07.069Z,66.48
2022-12-28T11:36:40.599Z,66.62
2022-12-28T11:39:46.924Z,66.64
2022-12-28T11:42:58.275Z,66.27
2022-12-28T11:45:53.052Z,66.61
2022-12-28T11:48:58.633Z,67.04
2022-12-28T11:51:28.402Z,66.82
2022-12-28T11:54:03.254Z,67.01
2022-12-28T11:56:58.940Z,66.88
2022-12-28T11:59:30.077Z,67.16
2022-12-28T12:02:00.235Z,66.98
2022-12-28T12:04:35.006Z,66.71
2022-12-28T12:07:16.210Z,66.54
2022-12-28T12:09:46.519Z,65.99
2022-12-28T12:12:48.602Z,66.12
2022-12-28T12:15:22.078Z,66.09
2022-12-28T12:17:56.121Z,66.03
2022-12-28T12:20:35.567Z,65.76
2022-12-28T12:23:08.771Z,64.54
2022-12-28T12:25:41.016Z,64.43
2022-12-28T12:28:16.682Z,63.48
2022-12-28T12:30:47.192Z,63.42
2022-12-28T12:33:19.529Z,62.51
2022-12-28T12:36:00.072Z,62.50
2022-12-28T12:38:43.400Z,62.01
2022-12-28T12:41:26.026Z,61.99
2022-12-28T12:44:06.861Z,62.11
2022-12-28T12:47:26.920Z,61.60
2022-12-28T12:50:29.799Z,62.04
2022-12-28T12:53:07.306Z,61.13
2022-12-28T12:55:47.450Z,61.13
2022-12-28T12:58:25.006Z,61.33
2022-12-28T13:01:12.482Z,60.69
2022-12-28T13:03:44.946Z,61.22
2022-12-28T13:06:15.941Z,61.07
2022-12-28T13:08:48.990Z,61.06
2022-12-28T13:11:19.296Z,61.45
2022-12-28T13:13:49.085Z,61.17
2022-12-28T13:16:19.553Z,60.98
2022-12-28T13:18:57.538Z,60.90
2022-12-28T13:21:26.810Z,60.87
2022-12-28T13:23:56.133Z,61.32
2022-12-28T13:26:28.288Z,61.70
2022-12-28T13:28:59.042Z,62.24
2022-12-28T13:31:34.313Z,63.60
2022-12-28T13:34:05.833Z,64.07
2022-12-28T13:36:33.826Z,63.62
2022-12-28T13:39:11.505Z,62.72
2022-12-28T13:41:44.486Z,62.42
2022-12-28T13:44:38.908Z,62.31
2022-12-28T13:47:16.055Z,61.66
2022-12-28T13:49:50.388Z,61.52
2022-12-28T13:52:21.957Z,61.83
2022-12-28T13:54:54.432Z,62.10
2022-12-28T14:00:17.976Z,62.37
2022-12-28T14:02:46.434Z,62.13
2022-12-28T14:05:19.615Z,61.16
2022-12-28T14:07:49.065Z,61.54
2022-12-28T14:10:18.235Z,61.59
2022-12-28T14:12:47.466Z,61.13
2022-12-28T14:15:16.610Z,61.10
2022-12-28T14:17:46.577Z,61.77
2022-12-28T14:20:14.714Z,61.75
2022-12-28T14:22:43.910Z,61.87
2022-12-28T14:25:14.143Z,61.71
2022-12-28T14:27:44.385Z,61.37
2022-12-28T14:30:24.599Z,60.92
2022-12-28T14:32:55.944Z,61.21
2022-12-28T14:35:26.205Z,61.46
2022-12-28T14:37:57.909Z,61.55
2022-12-28T14:40:30.005Z,62.59
2022-12-28T14:42:59.006Z,63.71
2022-12-28T14:46:04.848Z,63.95
2022-12-28T14:48:37.350Z,64.42
2022-12-28T14:51:07.393Z,64.69
2022-12-28T14:53:36.716Z,64.82
2022-12-28T14:56:11.148Z,65.68
2022-12-28T14:58:50.785Z,65.67
2022-12-28T15:01:21.007Z,66.17
2022-12-28T15:03:50.801Z,66.43
2022-12-28T15:06:19.993Z,66.87
2022-12-28T15:08:50.807Z,66.90
2022-12-28T15:11:20.032Z,67.57
2022-12-28T15:13:51.510Z,68.29
2022-12-28T15:16:22.860Z,68.59
2022-12-28T15:18:50.908Z,68.53
2022-12-28T15:21:20.982Z,68.68
2022-12-28T15:23:51.644Z,69.32
2022-12-28T15:26:19.970Z,69.96
2022-12-28T15:28:48.159Z,70.11
2022-12-28T15:31:17.987Z,70.31
2022-12-28T15:33:46.743Z,70.84
2022-12-28T15:36:18.217Z,71.19
2022-12-28T15:38:46.594Z,71.36
2022-12-28T15:41:34.470Z,71.30
2022-12-28T15:44:02.411Z,72.03
2022-12-28T15:46:30.275Z,72.22
2022-12-28T15:48:58.327Z,72.42
2022-12-28T15:51:26.194Z,72.67
2022-12-28T15:53:54.103Z,73.16
2022-12-28T15:56:25.043Z,72.66
2022-12-28T15:58:54.363Z,72.63
2022-12-28T16:01:22.698Z,72.42
2022-12-28T16:03:51.320Z,72.38
2022-12-28T16:06:19.274Z,72.59
2022-12-28T16:08:47.439Z,72.32
2022-12-28T16:11:17.071Z,71.89
2022-12-28T16:13:51.640Z,71.85
2022-12-28T16:16:20.069Z,72.01
2022-12-28T16:18:48.331Z,71.27
2022-12-28T16:21:16.387Z,71.14
2022-12-28T16:23:46.035Z,71.18
2022-12-28T16:26:14.677Z,71.22
2022-12-28T16:28:42.757Z,71.18
2022-12-28T16:31:23.781Z,71.68
2022-12-28T16:33:55.387Z,71.62
2022-12-28T16:36:23.670Z,70.57
2022-12-28T16:38:51.744Z,71.03
2022-12-28T16:41:20.002Z,71.30
2022-12-28T16:43:48.578Z,70.86
2022-12-28T16:46:16.736Z,70.75
2022-12-28T16:48:46.099Z,71.26
2022-12-28T16:51:14.628Z,70.88
2022-12-28T16:53:42.742Z,71.01
2022-12-28T16:56:11.879Z,71.41
2022-12-28T16:58:39.777Z,70.53
2022-12-28T17:01:09.837Z,70.72
2022-12-28T17:03:38.881Z,70.74
2022-12-28T17:06:09.009Z,70.68
2022-12-28T17:08:37.437Z,70.92
2022-12-28T17:11:09.254Z,70.72
2022-12-28T17:13:37.325Z,70.50
2022-12-28T17:16:05.987Z,70.49
2022-12-28T17:18:34.059Z,70.47
2022-12-28T17:21:06.626Z,71.12
2022-12-28T17:23:36.402Z,71.06
2022-12-28T17:26:04.297Z,71.87
2022-12-28T17:28:32.254Z,72.05
2022-12-28T17:31:08.479Z,72.74
2022-12-28T17:33:39.742Z,72.85
2022-12-28T17:36:09.609Z,72.95
2022-12-28T17:38:38.878Z,72.16
2022-12-28T17:41:11.562Z,71.53
2022-12-28T17:43:39.494Z,71.65
2022-12-28T17:46:07.603Z,71.71
2022-12-28T17:48:35.601Z,72.32
2022-12-28T17:51:11.153Z,72.47
2022-12-28T17:53:41.737Z,72.51
2022-12-28T17:56:12.717Z,72.41
2022-12-28T17:58:40.891Z,72.30
2022-12-28T18:01:09.179Z,72.14
2022-12-28T18:03:37.692Z,72.05
2022-12-28T18:06:06.185Z,72.19
2022-12-28T18:08:34.239Z,72.33
2022-12-28T18:11:03.731Z,73.06
2022-12-28T18:13:31.641Z,72.99
2022-12-28T18:15:59.749Z,73.06
2022-12-28T18:18:27.655Z,73.06
2022-12-28T18:20:59.721Z,72.88
2022-12-28T18:23:28.659Z,72.92
2022-12-28T18:26:03.401Z,72.99
2022-12-28T18:28:31.578Z,72.91
2022-12-28T18:31:02.097Z,73.33
2022-12-28T18:33:30.918Z,73.49
2022-12-28T18:35:59.383Z,73.23
2022-12-28T18:38:27.324Z,73.23
2022-12-28T18:40:57.570Z,72.97
2022-12-28T18:43:27.167Z,73.49
2022-12-28T18:45:55.923Z,73.49
2022-12-28T18:48:24.475Z,73.25
2022-12-28T18:50:54.263Z,74.11
2022-12-28T18:53:22.444Z,73.03
2022-12-28T18:55:57.588Z,73.09
2022-12-28T18:58:27.662Z,72.95
2022-12-28T19:00:55.655Z,73.43
2022-12-28T19:03:23.769Z,73.72
2022-12-28T19:06:02.569Z,73.43
2022-12-28T19:08:32.399Z,73.86
2022-12-28T19:11:00.920Z,73.79
2022-12-28T19:13:34.416Z,73.67
2022-12-28T19:16:02.462Z,74.26
2022-12-28T19:18:30.367Z,73.64
2022-12-28T19:20:58.922Z,73.81
2022-12-28T19:23:27.147Z,73.53
2022-12-28T19:25:59.475Z,73.30
2022-12-28T19:28:27.727Z,72.95
2022-12-28T19:31:01.145Z,73.10
2022-12-28T19:33:32.766Z,73.44
2022-12-28T19:36:00.969Z,73.33
2022-12-28T19:38:29.292Z,73.07
2022-12-28T19:40:57.635Z,73.42
2022-12-28T19:43:25.584Z,73.89
2022-12-28T19:45:53.369Z,73.59
2022-12-28T19:48:22.618Z,73.67
2022-12-28T19:50:50.543Z,73.36
2022-12-28T19:53:18.424Z,74.26
2022-12-28T19:55:46.246Z,73.69
2022-12-28T19:58:14.104Z,73.37
2022-12-28T20:00:43.310Z,73.45
2022-12-28T20:03:11.380Z,72.98
2022-12-28T20:05:41.090Z,73.56
2022-12-28T20:08:08.909Z,73.52
2022-12-28T20:10:36.860Z,73.85
2022-12-28T20:13:04.897Z,74.04
2022-12-28T20:15:32.901Z,74.14
2022-12-28T20:18:00.834Z,73.98
2022-12-28T20:20:33.024Z,73.70
2022-12-28T20:23:09.969Z,73.23
2022-12-28T20:25:37.778Z,74.08
2022-12-28T20:28:05.970Z,73.87
2022-12-28T20:30:33.888Z,73.40
2022-12-28T20:33:02.020Z,73.20
2022-12-28T20:35:29.979Z,73.49
2022-12-28T20:37:57.960Z,73.68
2022-12-28T20:40:27.203Z,72.70
2022-12-28T20:43:12.626Z,72.84
2022-12-28T20:45:40.675Z,73.39
2022-12-28T20:48:08.731Z,73.19
2022-12-28T20:50:36.618Z,73.17
2022-12-28T20:53:04.762Z,73.36
2022-12-28T20:55:34.164Z,73.03
2022-12-28T20:58:02.079Z,73.13
2022-12-28T21:00:29.959Z,73.38
2022-12-28T21:02:58.202Z,73.82
2022-12-28T21:05:26.073Z,73.76
2022-12-28T21:07:54.014Z,74.15
2022-12-28T21:10:22.013Z,74.34
2022-12-28T21:12:51.329Z,74.34
2022-12-28T21:15:19.282Z,74.75
2022-12-28T21:17:47.242Z,74.97
2022-12-28T21:20:15.285Z,74.56
2022-12-28T21:22:43.419Z,74.26
2022-12-28T21:25:11.917Z,74.41
2022-12-28T21:27:40.483Z,74.82
2022-12-28T21:30:11.590Z,75.09
2022-12-28T21:32:39.428Z,75.53
2022-12-28T21:35:07.842Z,75.38
2022-12-28T21:37:36.103Z,75.01
2022-12-28T21:40:06.175Z,74.87
2022-12-28T21:42:34.347Z,74.94
2022-12-28T21:45:02.376Z,74.56
2022-12-28T21:47:34.396Z,74.70
2022-12-28T21:50:02.657Z,74.26
2022-12-28T21:52:30.935Z,73.92
2022-12-28T21:55:18.762Z,73.61
2022-12-28T21:57:50.382Z,73.32
2022-12-28T22:00:32.369Z,73.14
2022-12-28T22:03:18.985Z,72.62
2022-12-28T22:06:06.082Z,73.21
2022-12-28T22:08:52.639Z,73.02
2022-12-28T22:11:38.451Z,72.94
2022-12-28T22:14:07.683Z,71.88
2022-12-28T22:16:36.670Z,72.16
2022-12-28T22:19:06.816Z,72.30
2022-12-28T22:21:35.968Z,72.12
2022-12-28T22:24:03.871Z,72.08
2022-12-28T22:26:31.846Z,71.85
2022-12-28T22:29:00.739Z,72.49
2022-12-28T22:31:28.630Z,73.15
2022-12-28T22:34:01.747Z,73.54
2022-12-28T22:36:34.562Z,73.83
2022-12-28T22:39:02.593Z,74.32
2022-12-28T22:41:30.506Z,74.49
2022-12-28T22:43:58.308Z,74.97
2022-12-28T22:46:26.619Z,75.07
2022-12-28T22:48:54.571Z,75.37
2022-12-28T22:51:22.378Z,75.46
2022-12-28T22:53:51.521Z,75.43
2022-12-28T22:56:20.778Z,75.60
2022-12-28T22:58:49.469Z,76.20
2022-12-28T23:01:18.923Z,76.13
2022-12-28T23:03:48.600Z,75.58
2022-12-28T23:06:18.945Z,75.78
2022-12-28T23:08:47.521Z,75.49
2022-12-28T23:11:37.812Z,75.12
2022-12-28T23:14:26.007Z,75.12
2022-12-28T23:16:54.034Z,75.16
2022-12-28T23:19:39.624Z,75.14
2022-12-28T23:22:26.068Z,75.01
2022-12-28T23:25:11.392Z,75.02
2022-12-28T23:27:42.158Z,75.41
2022-12-28T23:30:13.647Z,75.42
2022-12-28T23:32:41.970Z,75.64
2022-12-28T23:35:10.321Z,75.69
2022-12-28T23:37:39.217Z,75.71
2022-12-28T23:40:09.154Z,75.77
2022-12-28T23:42:37.226Z,76.23
2022-12-28T23:45:08.651Z,76.21
2022-12-28T23:47:37.090Z,75.98
2022-12-28T23:50:06.314Z,76.32
2022-12-28T23:52:34.424Z,76.11
2022-12-28T23:55:02.232Z,76.24
2022-12-28T23:57:30.149Z,76.24
2022-12-28T23:59:57.968Z,76.12
